createdAt,value
2024-03-06T00:01:22.558Z,1.52
2024-03-06T00:03:49.227Z,1.42
2024-03-06T00:06:15.932Z,1.60
2024-03-06T00:08:42.606Z,1.50
2024-03-06T00:11:09.394Z,1.70
2024-03-06T00:13:36.144Z,1.58
2024-03-06T00:16:02.852Z,1.30
2024-03-06T00:18:29.608Z,1.23
2024-03-06T00:20:56.296Z,1.30
2024-03-06T00:23:22.866Z,1.65
2024-03-06T00:25:49.654Z,1.30
2024-03-06T00:28:16.485Z,1.35
2024-03-06T00:30:43.502Z,1.63
2024-03-06T00:33:10.136Z,1.10
2024-03-06T00:35:36.779Z,1.33
2024-03-06T00:38:03.740Z,1.20
2024-03-06T00:40:33.774Z,1.38
2024-03-06T00:43:00.561Z,1.20
2024-03-06T00:45:27.209Z,1.50
2024-03-06T00:47:53.826Z,1.00
2024-03-06T00:50:23.280Z,1.05
2024-03-06T00:52:50.030Z,1.50
2024-03-06T00:55:17.416Z,0.68
2024-03-06T00:57:44.064Z,0.80
2024-03-06T01:00:14.209Z,1.02
2024-03-06T01:02:41.407Z,0.88
2024-03-06T01:05:08.503Z,0.63
2024-03-06T01:07:35.959Z,0.75
2024-03-06T01:10:03.401Z,0.70
2024-03-06T01:12:30.061Z,0.70
2024-03-06T01:14:57.298Z,0.50
2024-03-06T01:17:23.942Z,0.50
2024-03-06T01:19:50.949Z,0.65
2024-03-06T01:22:18.037Z,0.80
2024-03-06T01:24:44.977Z,0.60
2024-03-06T01:27:11.857Z,0.70
2024-03-06T01:29:38.512Z,0.40
2024-03-06T01:32:05.396Z,0.63
2024-03-06T01:34:32.174Z,0.47
2024-03-06T01:36:58.868Z,0.55
2024-03-06T01:39:25.495Z,0.50
2024-03-06T01:41:53.237Z,0.30
2024-03-06T01:44:20.132Z,0.45
2024-03-06T01:46:47.923Z,0.40
2024-03-06T01:49:22.806Z,0.32
2024-03-06T01:51:57.255Z,0.50
2024-03-06T01:54:24.877Z,0.32
2024-03-06T01:56:52.611Z,0.30
2024-03-06T01:59:31.819Z,0.38
2024-03-06T02:02:04.827Z,0.30
2024-03-06T02:04:32.786Z,0.30
2024-03-06T02:06:59.517Z,0.50
2024-03-06T02:09:26.362Z,0.30
2024-03-06T02:11:53.027Z,0.32
2024-03-06T02:14:19.750Z,0.30
2024-03-06T02:16:46.561Z,0.55
2024-03-06T02:19:13.246Z,0.55
2024-03-06T02:21:40.288Z,0.40
2024-03-06T02:24:07.003Z,0.22
2024-03-06T02:26:33.588Z,0.22
2024-03-06T02:29:01.108Z,0.20
2024-03-06T02:31:27.748Z,0.43
2024-03-06T02:33:54.511Z,0.20
2024-03-06T02:36:21.335Z,0.40
2024-03-06T02:38:47.962Z,0.30
2024-03-06T02:41:17.112Z,0.30
2024-03-06T02:43:44.313Z,0.22
2024-03-06T02:46:10.998Z,0.20
2024-03-06T02:48:38.378Z,0.20
2024-03-06T02:51:05.088Z,0.30
2024-03-06T02:53:31.854Z,0.40
2024-03-06T02:55:59.407Z,0.32
2024-03-06T02:58:26.102Z,0.30
2024-03-06T03:00:53.429Z,0.25
2024-03-06T03:03:21.121Z,0.60
2024-03-06T03:05:47.717Z,0.30
2024-03-06T03:08:14.360Z,0.30
2024-03-06T03:10:41.212Z,0.28
2024-03-06T03:13:07.895Z,0.30
2024-03-06T03:15:34.736Z,0.45
2024-03-06T03:18:01.353Z,0.30
2024-03-06T03:20:28.646Z,0.45
2024-03-06T03:22:55.359Z,0.32
2024-03-06T03:25:23.114Z,0.28
2024-03-06T03:27:49.924Z,0.43
2024-03-06T03:30:17.352Z,0.25
2024-03-06T03:32:44.074Z,0.52
2024-03-06T03:35:11.059Z,0.30
2024-03-06T03:37:37.826Z,0.28
2024-03-06T03:40:04.956Z,0.20
2024-03-06T03:42:31.931Z,0.38
2024-03-06T03:44:58.584Z,0.35
2024-03-06T03:47:25.542Z,0.40
2024-03-06T03:50:03.070Z,0.50
2024-03-06T03:52:36.496Z,0.40
2024-03-06T03:55:04.727Z,0.40
2024-03-06T03:57:32.149Z,0.50
2024-03-06T03:59:58.830Z,0.38
2024-03-06T04:02:25.667Z,0.43
2024-03-06T04:04:52.406Z,0.30
2024-03-06T04:07:20.137Z,0.38
2024-03-06T04:09:46.882Z,0.40
2024-03-06T04:12:13.542Z,0.50
2024-03-06T04:14:40.951Z,0.32
2024-03-06T04:17:07.696Z,0.45
2024-03-06T04:19:34.439Z,0.43
2024-03-06T04:22:01.156Z,0.45
2024-03-06T04:24:27.888Z,0.40
2024-03-06T04:26:54.485Z,0.50
2024-03-06T04:29:21.219Z,0.38
2024-03-06T04:31:47.945Z,0.40
2024-03-06T04:34:14.615Z,0.70
2024-03-06T04:36:41.241Z,0.50
2024-03-06T04:39:08.837Z,0.30
2024-03-06T04:41:35.645Z,0.60
2024-03-06T04:44:02.405Z,0.45
2024-03-06T04:46:29.102Z,0.50
2024-03-06T04:48:55.826Z,0.55
2024-03-06T04:51:22.481Z,0.50
2024-03-06T04:53:49.652Z,0.60
2024-03-06T04:56:20.116Z,0.70
2024-03-06T04:58:46.939Z,0.47
2024-03-06T05:01:14.241Z,0.40
2024-03-06T05:58:50.382Z,0.90
2024-03-06T06:01:21.362Z,1.00
2024-03-06T06:03:49.068Z,0.90
2024-03-06T06:06:16.760Z,0.88
2024-03-06T06:08:45.330Z,1.00
2024-03-06T06:11:12.834Z,0.90
2024-03-06T06:13:43.254Z,1.00
2024-03-06T06:16:10.890Z,1.08
2024-03-06T06:18:37.569Z,1.25
2024-03-06T06:21:08.462Z,1.30
2024-03-06T06:26:02.920Z,1.35
2024-03-06T06:28:29.735Z,1.80
2024-03-06T06:30:56.547Z,1.35
2024-03-06T06:33:23.194Z,1.30
2024-03-06T06:35:49.898Z,1.40
2024-03-06T06:38:16.672Z,1.35
2024-03-06T06:40:43.383Z,1.50
2024-03-06T06:43:10.050Z,1.20
2024-03-06T06:45:39.072Z,1.60
2024-03-06T06:48:06.153Z,1.25
2024-03-06T06:50:34.763Z,1.60
2024-03-06T06:53:01.678Z,1.58
2024-03-06T06:55:28.570Z,1.23
2024-03-06T06:57:55.343Z,1.83
2024-03-06T07:00:24.356Z,1.40
2024-03-06T07:02:51.813Z,1.60
2024-03-06T07:05:18.487Z,1.20
2024-03-06T07:07:45.155Z,1.15
2024-03-06T07:10:12.036Z,1.55
2024-03-06T07:12:39.105Z,1.30
2024-03-06T07:15:07.727Z,1.30
2024-03-06T07:17:34.817Z,1.50
2024-03-06T07:20:01.897Z,1.30
2024-03-06T07:22:28.741Z,1.45
2024-03-06T07:24:55.778Z,1.38
2024-03-06T07:27:22.452Z,1.55
2024-03-06T07:29:49.774Z,1.35
2024-03-06T07:32:16.385Z,1.30
2024-03-06T07:34:43.049Z,1.20
2024-03-06T07:37:09.682Z,1.40
2024-03-06T07:39:36.557Z,1.30
2024-03-06T07:42:03.973Z,1.35
2024-03-06T07:44:30.635Z,1.38
2024-03-06T07:46:57.588Z,2.25
2024-03-06T07:49:24.521Z,1.70
2024-03-06T07:51:51.412Z,1.38
2024-03-06T07:54:18.621Z,1.30
2024-03-06T07:56:45.432Z,1.30
2024-03-06T07:59:13.892Z,1.45
2024-03-06T08:01:41.692Z,1.60
2024-03-06T08:04:08.359Z,1.40
2024-03-06T08:06:35.971Z,1.30
2024-03-06T08:09:03.680Z,1.70
2024-03-06T08:11:30.875Z,1.48
2024-03-06T08:14:01.408Z,1.50
2024-03-06T08:16:29.160Z,1.70
2024-03-06T08:18:57.250Z,1.60
2024-03-06T08:21:24.091Z,1.50
2024-03-06T08:23:50.894Z,1.50
2024-03-06T08:26:17.805Z,1.60
2024-03-06T08:28:44.587Z,1.50
2024-03-06T08:31:11.328Z,1.83
2024-03-06T08:33:38.751Z,1.70
2024-03-06T08:36:05.901Z,2.15
2024-03-06T08:38:32.600Z,1.88
2024-03-06T08:40:59.277Z,1.80
2024-03-06T08:43:26.260Z,1.80
2024-03-06T08:45:52.980Z,2.30
2024-03-06T08:48:19.602Z,1.70
2024-03-06T08:50:47.061Z,1.48
2024-03-06T08:53:15.213Z,1.58
2024-03-06T08:55:42.009Z,1.73
2024-03-06T08:58:10.176Z,1.88
2024-03-06T09:00:36.856Z,1.90
2024-03-06T09:03:03.561Z,1.65
2024-03-06T09:05:30.291Z,1.60
2024-03-06T09:08:01.284Z,1.55
2024-03-06T09:10:29.370Z,1.83
2024-03-06T09:12:55.990Z,1.67
2024-03-06T09:15:22.770Z,2.13
2024-03-06T09:17:50.177Z,2.30
2024-03-06T09:20:17.663Z,2.13
2024-03-06T09:22:44.621Z,2.35
2024-03-06T09:25:15.467Z,1.75
2024-03-06T09:27:43.330Z,1.67
2024-03-06T09:30:10.806Z,1.60
2024-03-06T09:32:39.295Z,1.80
2024-03-06T09:35:07.509Z,1.42
2024-03-06T09:37:34.262Z,1.77
2024-03-06T09:40:00.916Z,1.52
2024-03-06T09:42:27.626Z,1.70
2024-03-06T09:44:54.287Z,1.52
2024-03-06T09:47:27.145Z,1.83
2024-03-06T09:49:57.264Z,1.80
2024-03-06T09:52:28.488Z,2.22
2024-03-06T09:54:56.981Z,1.85
2024-03-06T09:57:24.062Z,1.60
2024-03-06T09:59:50.809Z,1.48
2024-03-06T10:02:39.368Z,1.85
2024-03-06T10:05:06.931Z,1.70
2024-03-06T10:07:33.942Z,1.83
2024-03-06T10:10:00.771Z,1.80
2024-03-06T10:12:30.635Z,1.45
2024-03-06T10:14:58.383Z,1.30
2024-03-06T10:17:28.974Z,1.83
2024-03-06T10:19:56.572Z,1.50
2024-03-06T10:22:26.719Z,1.63
2024-03-06T10:24:59.691Z,1.67
2024-03-06T10:27:26.527Z,1.65
2024-03-06T10:30:07.426Z,1.90
2024-03-06T10:32:34.513Z,2.00
2024-03-06T10:35:01.444Z,2.28
2024-03-06T10:37:30.234Z,2.20
2024-03-06T10:40:00.032Z,2.00
2024-03-06T10:42:29.814Z,2.03
2024-03-06T10:45:00.091Z,2.15
2024-03-06T10:47:29.291Z,2.08
2024-03-06T10:50:01.057Z,2.17
2024-03-06T10:52:29.082Z,1.80
2024-03-06T10:54:58.701Z,2.00
2024-03-06T10:57:26.577Z,1.60
2024-03-06T10:59:54.092Z,1.85
2024-03-06T11:02:23.907Z,2.15
2024-03-06T11:04:53.598Z,2.08
2024-03-06T11:07:20.817Z,1.73
2024-03-06T11:09:50.220Z,1.98
2024-03-06T11:12:39.659Z,2.00
2024-03-06T11:15:22.007Z,1.95
2024-03-06T11:17:50.319Z,1.73
2024-03-06T11:20:19.209Z,1.50
2024-03-06T11:23:01.572Z,1.65
2024-03-06T11:25:50.031Z,1.60
2024-03-06T11:28:26.414Z,1.70
2024-03-06T11:30:55.754Z,1.92
2024-03-06T11:33:22.958Z,1.97
2024-03-06T11:36:21.649Z,2.15
2024-03-06T11:38:51.794Z,3.88
2024-03-06T11:41:19.672Z,4.60
2024-03-06T11:43:49.364Z,5.68
2024-03-06T11:46:15.968Z,5.65
2024-03-06T11:48:42.745Z,4.68
2024-03-06T11:51:10.192Z,4.10
2024-03-06T11:53:39.197Z,3.38
2024-03-06T11:56:09.390Z,2.80
2024-03-06T11:58:36.060Z,3.03
2024-03-06T12:01:02.869Z,3.50
2024-03-06T12:03:29.633Z,2.67
2024-03-06T12:05:56.348Z,2.30
2024-03-06T12:08:23.097Z,2.10
2024-03-06T12:10:49.849Z,1.95
2024-03-06T12:13:17.147Z,1.77
2024-03-06T12:15:45.829Z,2.20
2024-03-06T12:18:12.767Z,2.60
2024-03-06T12:20:46.935Z,2.35
2024-03-06T12:23:23.265Z,2.10
2024-03-06T12:26:01.556Z,2.05
2024-03-06T12:28:32.318Z,1.75
2024-03-06T12:31:02.265Z,1.98
2024-03-06T12:33:32.027Z,1.98
2024-03-06T12:36:11.808Z,2.08
2024-03-06T12:38:38.928Z,1.80
2024-03-06T12:41:07.353Z,1.70
2024-03-06T12:43:36.190Z,1.63
2024-03-06T12:46:05.944Z,1.85
2024-03-06T12:48:32.991Z,1.90
2024-03-06T12:51:06.458Z,2.00
2024-03-06T12:53:37.031Z,1.90
2024-03-06T12:56:04.874Z,1.45
2024-03-06T12:58:36.457Z,2.00
2024-03-06T13:01:03.396Z,1.70
2024-03-06T13:03:30.095Z,1.65
2024-03-06T13:05:57.759Z,1.73
2024-03-06T13:08:24.560Z,1.70
2024-03-06T13:10:51.394Z,1.80
2024-03-06T13:13:18.047Z,1.58
2024-03-06T13:15:45.564Z,1.90
2024-03-06T13:18:13.090Z,1.63
2024-03-06T13:20:39.825Z,1.70
2024-03-06T13:23:07.138Z,2.15
2024-03-06T13:25:33.825Z,1.60
2024-03-06T13:28:00.434Z,1.60
2024-03-06T13:30:27.199Z,1.85
2024-03-06T13:32:53.968Z,1.65
2024-03-06T13:35:20.970Z,2.08
2024-03-06T13:37:48.102Z,1.80
2024-03-06T13:40:15.009Z,1.95
2024-03-06T13:42:42.246Z,1.67
2024-03-06T13:45:13.023Z,1.67
2024-03-06T13:47:42.226Z,2.00
2024-03-06T13:50:10.285Z,2.20
2024-03-06T13:52:37.233Z,1.95
2024-03-06T13:55:05.566Z,1.80
2024-03-06T13:57:36.933Z,1.90
2024-03-06T14:00:13.424Z,1.83
2024-03-06T14:02:40.828Z,2.03
2024-03-06T14:05:08.361Z,1.90
2024-03-06T14:07:35.886Z,1.98
2024-03-06T14:10:05.191Z,1.80
2024-03-06T14:12:33.269Z,1.63
2024-03-06T14:15:00.231Z,1.50
2024-03-06T14:17:26.936Z,1.50
2024-03-06T14:19:53.765Z,1.60
2024-03-06T14:22:20.458Z,1.60
2024-03-06T14:24:47.123Z,1.65
2024-03-06T14:27:17.237Z,1.45
2024-03-06T14:29:44.421Z,1.50
2024-03-06T14:32:11.225Z,1.33
2024-03-06T14:34:38.030Z,1.40
2024-03-06T14:37:04.960Z,1.30
2024-03-06T14:39:31.595Z,1.60
2024-03-06T14:41:58.267Z,1.60
2024-03-06T14:44:24.986Z,1.50
2024-03-06T14:46:51.843Z,1.55
2024-03-06T14:49:19.192Z,1.42
2024-03-06T14:51:46.165Z,1.60
2024-03-06T14:54:12.821Z,1.30
2024-03-06T14:56:39.488Z,1.42
2024-03-06T14:59:06.228Z,1.58
2024-03-06T15:01:32.980Z,1.38
2024-03-06T15:04:00.007Z,1.65
2024-03-06T15:06:27.344Z,1.50
2024-03-06T15:08:54.290Z,1.42
2024-03-06T15:11:24.407Z,1.60
2024-03-06T15:13:51.833Z,1.30
2024-03-06T15:16:20.248Z,1.95
2024-03-06T15:18:48.289Z,1.88
2024-03-06T15:21:15.354Z,1.50
2024-03-06T15:23:42.047Z,1.60
2024-03-06T15:26:08.780Z,1.40
2024-03-06T15:28:35.444Z,1.25
2024-03-06T15:31:05.054Z,1.60
2024-03-06T15:33:32.147Z,1.50
2024-03-06T15:36:01.142Z,1.60
2024-03-06T15:38:28.068Z,1.60
2024-03-06T15:40:54.800Z,1.20
2024-03-06T15:43:21.637Z,1.40
2024-03-06T15:45:48.357Z,1.30
2024-03-06T15:48:16.536Z,1.30
2024-03-06T15:50:44.371Z,1.40
2024-03-06T15:53:11.526Z,1.70
2024-03-06T15:55:38.469Z,1.63
2024-03-06T15:58:05.345Z,1.60
2024-03-06T16:00:32.380Z,1.50
2024-03-06T16:02:59.769Z,1.85
2024-03-06T16:05:29.505Z,1.55
2024-03-06T16:08:05.295Z,1.40
2024-03-06T16:10:33.024Z,1.52
2024-03-06T16:12:59.713Z,1.40
2024-03-06T16:15:26.522Z,1.45
2024-03-06T16:17:53.276Z,1.48
2024-03-06T16:20:21.522Z,1.20
2024-03-06T16:22:48.424Z,1.23
2024-03-06T16:25:15.181Z,1.40
2024-03-06T16:27:41.830Z,1.23
2024-03-06T16:30:11.663Z,1.10
2024-03-06T16:32:39.461Z,1.30
2024-03-06T16:35:06.408Z,1.40
2024-03-06T16:37:33.144Z,1.25
2024-03-06T16:40:01.185Z,1.40
2024-03-06T16:42:27.842Z,1.10
2024-03-06T16:44:54.521Z,1.30
2024-03-06T16:47:21.249Z,1.40
2024-03-06T16:49:47.905Z,1.00
2024-03-06T16:52:14.673Z,1.20
2024-03-06T16:54:42.197Z,1.25
2024-03-06T16:57:12.084Z,1.15
2024-03-06T16:59:39.666Z,1.20
2024-03-06T17:02:06.567Z,1.30
2024-03-06T17:04:33.288Z,1.10
2024-03-06T17:07:02.378Z,1.02
2024-03-06T17:09:29.070Z,1.33
2024-03-06T17:11:56.632Z,1.10
2024-03-06T17:14:23.364Z,1.20
2024-03-06T17:16:50.042Z,1.10
2024-03-06T17:19:16.710Z,1.10
2024-03-06T17:21:43.355Z,1.20
2024-03-06T17:24:09.984Z,0.90
2024-03-06T17:26:39.554Z,1.20
2024-03-06T17:29:07.575Z,1.38
2024-03-06T17:31:36.314Z,1.25
2024-03-06T17:34:03.530Z,1.08
2024-03-06T17:36:32.462Z,1.48
2024-03-06T17:41:27.515Z,1.40
2024-03-06T17:43:54.189Z,1.20
2024-03-06T17:46:21.287Z,1.60
2024-03-06T17:48:49.087Z,1.40
2024-03-06T17:51:15.997Z,1.25
2024-03-06T17:53:42.685Z,1.30
2024-03-06T17:56:09.432Z,1.70
2024-03-06T17:58:36.133Z,1.60
2024-03-06T18:01:02.783Z,1.42
2024-03-06T18:03:29.553Z,1.63
2024-03-06T18:05:56.254Z,1.60
2024-03-06T18:08:23.041Z,1.58
2024-03-06T18:10:49.699Z,1.80
2024-03-06T18:13:16.414Z,1.90
2024-03-06T18:15:43.203Z,1.77
2024-03-06T18:18:09.953Z,1.90
2024-03-06T18:20:36.681Z,1.95
2024-03-06T18:23:03.434Z,2.15
2024-03-06T18:25:30.464Z,1.70
2024-03-06T18:27:57.313Z,2.20
2024-03-06T18:30:25.207Z,2.10
2024-03-06T18:32:52.025Z,1.88
2024-03-06T18:35:18.838Z,2.00
2024-03-06T18:37:45.542Z,2.03
2024-03-06T18:40:15.329Z,2.00
2024-03-06T18:42:42.807Z,2.15
2024-03-06T18:45:10.100Z,2.03
2024-03-06T18:47:37.911Z,1.98
2024-03-06T18:50:05.711Z,2.15
2024-03-06T18:52:32.774Z,2.00
2024-03-06T18:54:59.569Z,1.98
2024-03-06T18:57:27.421Z,1.98
2024-03-06T18:59:55.194Z,1.85
2024-03-06T19:02:22.884Z,2.00
2024-03-06T19:04:49.616Z,2.17
2024-03-06T19:07:20.134Z,2.03
2024-03-06T19:09:46.949Z,1.92
2024-03-06T19:12:14.020Z,2.50
2024-03-06T19:14:41.711Z,2.20
2024-03-06T19:17:09.039Z,2.30
2024-03-06T19:19:35.674Z,2.17
2024-03-06T19:22:02.886Z,2.10
2024-03-06T19:24:29.523Z,2.38
2024-03-06T19:26:56.878Z,1.98
2024-03-06T19:29:26.665Z,1.90
2024-03-06T19:31:53.572Z,1.83
2024-03-06T19:34:20.268Z,1.85
2024-03-06T19:36:49.226Z,2.22
2024-03-06T19:39:15.899Z,1.88
2024-03-06T19:41:42.644Z,2.25
2024-03-06T19:44:09.420Z,2.13
2024-03-06T19:46:36.361Z,1.95
2024-03-06T19:49:03.080Z,2.10
2024-03-06T19:51:29.704Z,2.00
2024-03-06T19:53:57.114Z,1.90
2024-03-06T19:56:25.414Z,1.88
2024-03-06T19:58:52.583Z,1.83
2024-03-06T20:01:21.017Z,2.17
2024-03-06T20:03:47.615Z,1.92
2024-03-06T20:06:14.211Z,2.20
2024-03-06T20:08:40.919Z,2.40
2024-03-06T20:11:08.283Z,2.40
2024-03-06T20:13:35.265Z,2.15
2024-03-06T20:16:01.897Z,2.42
2024-03-06T20:18:28.604Z,2.30
2024-03-06T20:20:55.851Z,2.10
2024-03-06T20:23:22.666Z,2.25
2024-03-06T20:25:49.344Z,2.88
2024-03-06T20:28:16.138Z,2.25
2024-03-06T20:30:43.946Z,2.03
2024-03-06T20:33:11.600Z,2.80
2024-03-06T20:35:38.537Z,2.50
2024-03-06T20:38:05.347Z,2.15
2024-03-06T20:40:33.423Z,2.42
2024-03-06T20:43:00.160Z,2.58
2024-03-06T20:45:26.820Z,2.50
2024-03-06T20:47:59.743Z,2.63
2024-03-06T20:50:27.048Z,3.00
2024-03-06T20:52:54.152Z,2.65
2024-03-06T20:55:20.930Z,2.58
2024-03-06T20:57:47.609Z,2.53
2024-03-06T21:00:17.033Z,2.63
2024-03-06T21:02:44.737Z,2.60
2024-03-06T21:05:12.427Z,3.00
2024-03-06T21:07:39.157Z,2.83
2024-03-06T21:10:06.124Z,2.95
2024-03-06T21:12:33.648Z,2.85
2024-03-06T21:15:02.432Z,2.78
2024-03-06T21:17:29.129Z,2.80
2024-03-06T21:19:57.837Z,3.10
2024-03-06T21:22:26.533Z,2.97
2024-03-06T21:24:53.147Z,3.45
2024-03-06T21:27:19.893Z,2.95
2024-03-06T21:29:49.355Z,2.85
2024-03-06T21:32:16.685Z,2.75
2024-03-06T21:34:43.732Z,2.90
2024-03-06T21:37:10.684Z,3.00
2024-03-06T21:39:37.986Z,3.20
2024-03-06T21:42:05.288Z,3.33
2024-03-06T21:44:32.998Z,3.20
2024-03-06T21:46:59.773Z,3.10
2024-03-06T21:49:32.086Z,3.38
2024-03-06T21:52:00.266Z,3.20
2024-03-06T21:54:26.931Z,3.53
2024-03-06T21:56:56.766Z,3.60
2024-03-06T21:59:23.884Z,3.40
2024-03-06T22:01:50.637Z,3.80
2024-03-06T22:04:17.617Z,3.13
2024-03-06T22:06:44.870Z,3.45
2024-03-06T22:09:11.894Z,3.40
2024-03-06T22:11:45.692Z,3.78
2024-03-06T22:14:13.674Z,3.97
2024-03-06T22:16:41.214Z,4.13
2024-03-06T22:19:07.987Z,3.97
2024-03-06T22:21:34.640Z,3.65
2024-03-06T22:24:01.340Z,4.10
2024-03-06T22:26:28.088Z,3.63
2024-03-06T22:28:54.816Z,3.47
2024-03-06T22:31:22.887Z,4.10
2024-03-06T22:33:49.566Z,3.60
2024-03-06T22:36:17.355Z,3.20
2024-03-06T22:38:48.763Z,3.53
2024-03-06T22:41:19.937Z,3.17
2024-03-06T22:43:46.987Z,3.50
2024-03-06T22:46:13.709Z,3.20
2024-03-06T22:48:40.826Z,2.90
2024-03-06T22:51:07.831Z,3.15
2024-03-06T22:53:34.455Z,3.35
2024-03-06T22:56:01.418Z,3.33
2024-03-06T22:58:28.007Z,3.20
2024-03-06T23:00:54.685Z,2.70
2024-03-06T23:03:22.518Z,3.10
2024-03-06T23:05:49.388Z,3.45
2024-03-06T23:08:16.367Z,3.15
2024-03-06T23:10:44.159Z,3.40
2024-03-06T23:13:13.693Z,3.28
2024-03-06T23:15:41.941Z,3.05
2024-03-06T23:18:12.156Z,3.30
2024-03-06T23:20:39.081Z,3.08
2024-03-06T23:23:06.146Z,3.40
2024-03-06T23:25:34.038Z,3.40
2024-03-06T23:28:02.347Z,3.10
2024-03-06T23:30:30.013Z,3.25
2024-03-06T23:32:56.941Z,2.80
2024-03-06T23:35:24.674Z,3.03
2024-03-06T23:37:51.409Z,3.00
2024-03-06T23:40:18.893Z,3.42
2024-03-06T23:42:48.865Z,3.10
2024-03-06T23:45:17.131Z,3.10
2024-03-06T23:47:46.665Z,3.10
2024-03-06T23:50:15.260Z,3.25
2024-03-06T23:52:41.901Z,3.20
2024-03-06T23:55:11.397Z,2.60
2024-03-06T23:57:38.064Z,2.88
